Time;durP1;ratioP1;P1;durP2;ratioP2;P2;SDS_P1;SDS_P2;PMS_P1;PMS_P2;Temp;Humidity;BMP_temperature;BMP_pressure;BME280_temperature;BME280_humidity;BME280_pressure;Samples;Min_cycle;Max_cycle;Signal;HPM_P1;HPM_P2
2023/12/01 07:16:43;;;;;;;18.00;8.55;;;;;;;-0.30;60.43;98800.56;6262784;22;20050;-89
2023/12/01 07:19:10;;;;;;;20.05;8.57;;;;;;;0.02;60.19;98802.44;6241792;23;20054;-88
2023/12/01 07:21:46;;;;;;;;;;;;;;;0.07;59.20;98807.88;6239990;22;20019;-89
2023/12/01 07:24:32;;;;;;;17.65;8.10;;;;;;;0.36;58.35;98788.69;6248111;23;19926;-85
2023/12/01 07:27:02;;;;;;;17.83;8.00;;;;;;;0.35;58.42;98766.38;6261205;23;20095;-86
2023/12/01 07:30:11;;;;;;;18.30;8.52;;;;;;;0.55;58.06;98797.16;6240207;22;20659;-91
2023/12/01 07:33:17;;;;;;;18.98;9.43;;;;;;;0.57;57.90;98752.81;6285360;22;20110;-88
2023/12/01 07:36:34;;;;;;;17.77;8.07;;;;;;;0.70;57.51;98797.25;6267268;22;20035;-89
2023/12/01 07:39:00;;;;;;;21.42;9.98;;;;;;;0.47;57.94;98768.88;6269356;23;20027;-88
2023/12/01 07:41:26;;;;;;;21.85;9.65;;;;;;;0.12;58.11;98729.94;6193679;23;20024;-87
2023/12/01 07:43:56;;;;;;;18.35;8.05;;;;;;;0.18;58.35;98753.09;6209661;23;20012;-88
2023/12/01 07:46:22;;;;;;;20.85;9.32;;;;;;;0.53;58.29;98778.59;6182809;23;20022;-84
2023/12/01 07:54:49;;;;;;;19.08;9.48;;;;;;;0.87;58.03;98781.72;6241832;22;20024;-90
2023/12/01 07:58:02;;;;;;;22.17;9.95;;;;;;;0.67;57.80;98749.38;6242321;22;20021;-92
2023/12/01 08:00:28;;;;;;;22.33;9.85;;;;;;;1.07;57.51;98777.50;6094797;23;20027;-91
2023/12/01 08:02:58;;;;;;;25.67;11.13;;;;;;;0.62;57.31;98706.28;6092479;23;20022;-89
2023/12/01 08:05:26;;;;;;;26.27;11.70;;;;;;;1.02;57.67;98772.09;6067770;23;20034;-91
2023/12/01 08:08:04;;;;;;;29.33;12.73;;;;;;;0.57;58.07;98727.81;6117660;23;19999;-87
2023/12/01 08:10:32;;;;;;;22.88;11.07;;;;;;;0.77;58.59;98778.19;6069040;23;20022;-92
2023/12/01 08:13:00;;;;;;;25.13;10.63;;;;;;;0.47;58.98;98728.56;6095535;23;20022;-88
2023/12/01 08:15:30;;;;;;;23.02;10.60;;;;;;;0.54;59.10;98715.69;6120384;23;20026;-88
2023/12/01 08:18:00;;;;;;;28.58;12.13;;;;;;;0.68;58.64;98703.34;6091065;23;20053;-90
2023/12/01 08:20:49;;;;;;;29.02;11.73;;;;;;;1.23;58.22;98759.53;6115872;23;20062;-88
2023/12/01 08:23:15;;;;;;;;;;;;;;;1.22;57.68;98757.88;6042172;23;20399;-88
2023/12/01 08:25:43;;;;;;;19.85;9.45;;;;;;;1.14;57.72;98751.94;6086900;23;20385;-85
2023/12/01 08:28:15;;;;;;;22.70;10.35;;;;;;;1.03;57.66;98715.31;6085770;23;20018;-91
2023/12/01 08:30:44;;;;;;;22.65;9.95;;;;;;;0.69;57.54;98658.44;6081557;23;20066;-85
2023/12/01 08:33:16;;;;;;;25.10;11.60;;;;;;;0.79;57.12;98631.56;6103925;23;20015;-84
2023/12/01 08:38:26;;;;;;;21.30;10.85;;;;;;;1.56;57.46;98748.28;6266598;22;20027;-84
2023/12/01 08:40:54;;;;;;;23.92;10.95;;;;;;;1.59;56.98;98723.50;6237873;22;20015;-84
2023/12/01 08:43:45;;;;;;;23.08;11.77;;;;;;;1.64;56.37;98736.16;6297742;22;20446;-86
2023/12/01 08:46:11;;;;;;;22.75;11.25;;;;;;;1.36;57.42;98729.41;6243885;23;20028;-84
2023/12/01 08:48:39;;;;;;;26.40;11.82;;;;;;;1.58;56.97;98724.56;6281221;22;20065;-87
2023/12/01 08:51:08;;;;;;;22.58;10.70;;;;;;;1.44;56.76;98685.78;6232948;22;20027;-84
2023/12/01 08:53:34;;;;;;;24.00;10.98;;;;;;;1.80;57.01;98731.56;6294223;22;20011;-88
2023/12/01 08:56:03;;;;;;;25.38;11.82;;;;;;;1.58;56.74;98697.63;6269366;22;20094;-86
2023/12/01 08:58:30;;;;;;;21.67;11.65;;;;;;;1.73;56.47;98702.22;6243820;22;20019;-87
2023/12/01 09:01:46;;;;;;;48.90;21.23;;;;;;;2.03;56.47;98725.63;6242216;22;20075;-88
2023/12/01 09:04:41;;;;;;;36.90;14.10;;;;;;;2.18;55.90;98723.97;6245189;22;20016;-89
2023/12/01 09:07:07;;;;;;;27.58;13.02;;;;;;;1.71;56.46;98690.06;6218178;22;20523;-86
2023/12/01 09:09:38;;;;;;;34.83;14.38;;;;;;;1.65;56.83;98662.31;6266469;22;20076;-87
2023/12/01 09:14:41;;;;;;;27.90;12.07;;;;;;;1.70;56.37;98678.50;6235212;22;20050;-86
2023/12/01 09:17:09;;;;;;;25.38;11.05;;;;;;;1.56;56.73;98672.06;6296907;22;20024;-89
2023/12/01 09:19:36;;;;;;;24.92;11.38;;;;;;;1.23;57.03;98631.09;6224110;22;20024;-92
2023/12/01 09:22:17;;;;;;;25.20;11.60;;;;;;;1.52;57.06;98666.38;6221568;22;20015;-88
2023/12/01 09:24:45;;;;;;;27.40;11.95;;;;;;;1.08;57.55;98621.13;6243732;22;20030;-85
2023/12/01 09:27:19;;;;;;;22.60;11.13;;;;;;;1.57;58.06;98711.38;6271705;22;20047;-89
2023/12/01 09:29:48;;;;;;;25.50;11.77;;;;;;;1.67;58.14;98707.88;6292593;22;20023;-85
2023/12/01 09:32:21;;;;;;;38.28;18.25;;;;;;;1.46;58.18;98682.78;6249178;22;20433;-84
2023/12/01 09:34:59;;;;;;;31.02;15.18;;;;;;;1.73;57.92;98702.22;6251003;22;20042;-83
2023/12/01 09:37:26;;;;;;;24.95;12.10;;;;;;;1.72;57.62;98689.78;6188532;22;20023;-84
2023/12/01 09:40:02;;;;;;;30.67;14.73;;;;;;;1.61;57.56;98680.91;6218983;22;20000;-89
2023/12/01 09:42:51;;;;;;;30.08;13.95;;;;;;;1.21;58.02;98633.25;6277682;22;20000;-87
2023/12/01 09:48:54;;;;;;;24.25;13.18;;;;;;;1.54;57.51;98685.78;6271747;22;20020;-86
2023/12/01 09:51:21;;;;;;;24.30;12.50;;;;;;;1.06;58.59;98634.06;6220418;23;20031;-88
2023/12/01 09:53:51;;;;;;;24.48;11.32;;;;;;;0.97;58.25;98597.16;6244506;22;20098;-88
2023/12/01 09:56:31;;;;;;;24.35;12.30;;;;;;;1.16;58.09;98630.56;6170842;23;20022;-85
2023/12/01 09:59:05;;;;;;;20.35;10.82;;;;;;;1.08;59.16;98641.84;6246635;22;20042;-86
2023/12/01 10:01:41;;;;;;;23.90;12.23;;;;;;;1.47;58.40;98658.31;6223560;22;20012;-86
2023/12/01 10:04:29;;;;;;;23.60;12.48;;;;;;;1.14;58.01;98579.69;6241494;23;20046;-87
2023/12/01 10:07:03;;;;;;;36.50;15.60;;;;;;;0.90;58.63;98597.44;6245438;22;20103;-84
2023/12/01 10:24:20;;;;;;;26.55;13.18;;;;;;;1.65;57.95;98619.22;6270309;22;20059;-87
2023/12/01 10:27:31;;;;;;;25.58;11.70;;;;;;;1.31;58.19;98581.28;6223188;22;20003;-88
2023/12/01 10:42:00;;;;;;;27.27;11.07;;;;;;;1.40;59.03;98569.72;5610996;22;15097071;-87
2023/12/01 10:45:36;;;;;;;26.65;12.20;;;;;;;1.36;59.35;98554.38;6230652;23;20008;-85
2023/12/01 10:48:30;;;;;;;23.90;11.40;;;;;;;1.54;58.80;98551.09;6249526;22;20008;-85
2023/12/01 10:51:43;;;;;;;28.55;12.05;;;;;;;0.96;59.25;98506.75;6199719;23;20028;-84
2023/12/01 10:54:12;;;;;;;23.42;12.18;;;;;;;1.62;59.84;98590.13;6192361;23;20016;-85
2023/12/01 10:57:23;;;;;;;23.92;11.05;;;;;;;1.25;59.48;98564.31;6219392;23;20004;-84
2023/12/01 10:59:56;;;;;;;29.60;13.02;;;;;;;1.63;59.15;98587.19;6190294;23;20083;-84
2023/12/01 11:02:25;;;;;;;23.60;11.95;;;;;;;1.42;58.69;98537.09;6217580;23;20016;-85
2023/12/01 11:04:59;;;;;;;21.77;12.25;;;;;;;1.34;58.62;98524.22;6195715;23;20007;-85
2023/12/01 11:08:02;;;;;;;23.25;11.68;;;;;;;1.40;58.45;98528.50;6188643;23;20025;-84
2023/12/01 11:11:24;;;;;;;24.92;11.10;;;;;;;1.28;59.13;98534.16;6238336;23;20024;-83
2023/12/01 11:13:51;;;;;;;23.42;11.85;;;;;;;1.60;60.13;98570.75;6105763;23;20005;-81
2023/12/01 11:16:42;;;;;;;23.85;12.05;;;;;;;1.71;59.67;98572.34;6129719;23;20018;-83
2023/12/01 11:19:17;;;;;;;28.13;11.63;;;;;;;1.47;59.39;98520.94;6125805;23;20030;-84
2023/12/01 11:22:48;;;;;;;22.13;10.77;;;;;;;1.45;59.51;98562.69;6072898;23;20010;-84
2023/12/01 11:25:49;;;;;;;24.52;11.68;;;;;;;1.30;60.14;98539.31;6076706;23;20015;-85
2023/12/01 11:31:48;;;;;;;23.55;12.05;;;;;;;1.36;60.35;98549.78;6067036;23;20033;-83
2023/12/01 11:34:27;;;;;;;23.30;11.65;;;;;;;1.61;59.92;98546.22;6065225;23;20002;-83
2023/12/01 11:36:54;;;;;;;27.73;12.35;;;;;;;1.25;59.78;98517.75;6069865;23;20450;-88
2023/12/01 11:39:31;;;;;;;;;;;;;;;1.35;60.48;98545.47;6069047;23;20015;-87
2023/12/01 11:42:05;;;;;;;26.30;12.68;;;;;;;1.48;60.44;98544.09;6065615;23;19922;-85
2023/12/01 11:44:44;;;;;;;28.77;12.05;;;;;;;0.86;60.05;98456.44;6149428;23;20032;-85
2023/12/01 11:47:14;;;;;;;31.70;13.20;;;;;;;1.18;59.89;98489.22;6180427;23;20002;-87
2023/12/01 11:49:53;;;;;;;30.20;14.20;;;;;;;1.64;59.90;98526.81;6133626;23;20017;-86
2023/12/01 11:53:05;;;;;;;28.38;13.13;;;;;;;1.43;60.00;98527.97;6204593;23;20011;-88
2023/12/01 11:55:36;;;;;;;25.48;12.40;;;;;;;0.69;60.76;98437.88;6240837;23;20080;-85
2023/12/01 12:00:58;;;;;;;31.42;14.80;;;;;;;1.15;60.25;98503.22;6236337;23;20024;-86
2023/12/01 12:03:34;;;;;;;29.85;14.00;;;;;;;0.84;60.66;98504.34;6215070;23;20017;-88
2023/12/01 12:06:00;;;;;;;31.35;13.95;;;;;;;0.57;61.48;98480.41;6236502;23;20035;-89
2023/12/01 12:08:37;;;;;;;35.40;15.00;;;;;;;0.73;61.46;98508.91;6239176;23;20000;-83
2023/12/01 12:11:11;;;;;;;37.40;15.40;;;;;;;1.04;61.04;98495.44;6241935;22;20065;-85
2023/12/01 12:16:53;;;;;;;30.65;13.95;;;;;;;1.23;60.16;98469.59;6241165;22;20001;-88
2023/12/01 12:19:26;;;;;;;38.72;14.60;;;;;;;1.08;60.77;98488.44;6239739;22;20020;-84
2023/12/01 12:21:58;;;;;;;27.75;13.65;;;;;;;0.62;61.13;98440.84;6241215;22;20030;-85
2023/12/01 12:24:24;;;;;;;32.88;14.90;;;;;;;1.12;60.90;98509.16;6215717;23;20027;-88
2023/12/01 12:27:23;;;;;;;31.70;14.70;;;;;;;1.08;61.38;98491.94;6215762;23;20009;-87
2023/12/01 12:30:13;;;;;;;36.15;14.88;;;;;;;0.72;61.29;98405.06;6239348;22;20011;-85
2023/12/01 12:32:45;;;;;;;32.78;14.48;;;;;;;0.79;61.13;98432.50;6241107;22;20021;-85
2023/12/01 12:35:36;;;;;;;29.52;14.25;;;;;;;1.08;61.07;98493.81;6240956;22;20032;-86
2023/12/01 12:38:16;;;;;;;34.33;14.90;;;;;;;1.07;61.07;98468.00;6215374;23;20000;-84
2023/12/01 12:40:55;;;;;;;28.92;13.82;;;;;;;0.83;61.01;98428.22;6240100;22;20060;-84
2023/12/01 12:43:22;;;;;;;35.40;15.00;;;;;;;0.81;60.81;98432.25;6239304;22;20020;-85
2023/12/01 12:46:13;;;;;;;33.53;14.50;;;;;;;0.95;61.32;98452.13;6243091;22;20001;-85
2023/12/01 12:48:46;;;;;;;32.38;15.13;;;;;;;0.62;61.00;98389.75;6218024;23;20004;-86
2023/12/01 12:51:27;;;;;;;28.40;14.23;;;;;;;0.86;61.31;98424.97;6214029;23;20048;-85
2023/12/01 12:54:27;;;;;;;29.00;14.43;;;;;;;0.89;61.00;98410.97;6214386;23;20024;-85
2023/12/01 12:59:43;;;;;;;28.48;12.55;;;;;;;0.57;60.89;98379.00;6216101;23;20028;-83
2023/12/01 13:02:19;;;;;;;31.20;14.07;;;;;;;0.85;60.83;98434.09;6234241;23;20026;-86
2023/12/01 13:05:15;;;;;;;30.65;14.18;;;;;;;0.84;61.50;98443.25;6192522;22;20012;-91
2023/12/01 13:08:08;;;;;;;29.40;13.48;;;;;;;0.84;61.38;98439.78;6147534;23;20021;-85
2023/12/01 13:10:43;;;;;;;30.35;13.32;;;;;;;0.75;61.41;98403.72;6124190;23;20025;-83
2023/12/01 13:13:33;;;;;;;31.42;14.70;;;;;;;0.53;61.41;98364.50;6123496;23;20022;-85
2023/12/01 13:16:37;;;;;;;36.50;15.95;;;;;;;0.67;61.44;98388.94;6122217;23;20018;-87
2023/12/01 13:19:19;;;;;;;36.03;15.90;;;;;;;0.41;61.27;98353.22;6147846;23;20021;-84
2023/12/01 13:22:31;;;;;;;39.20;16.00;;;;;;;0.15;61.44;98304.84;6141916;23;20097;-85
2023/12/01 13:25:23;;;;;;;37.83;15.93;;;;;;;0.33;61.58;98353.75;6144150;23;20006;-89
2023/12/01 13:27:50;;;;;;;39.03;16.40;;;;;;;0.62;61.61;98399.69;6092509;23;20022;-82
2023/12/01 13:30:20;;;;;;;42.33;17.30;;;;;;;0.57;61.73;98386.28;6147809;23;20053;-88
2023/12/01 13:32:59;;;;;;;39.40;17.42;;;;;;;0.78;61.58;98419.31;6144505;23;20010;-84
2023/12/01 13:35:27;;;;;;;40.97;16.83;;;;;;;0.33;61.85;98369.88;6121140;23;20140;-84
2023/12/01 13:37:55;;;;;;;37.75;16.40;;;;;;;0.58;62.00;98399.44;6123014;23;20049;-84
2023/12/01 13:40:47;;;;;;;38.90;17.23;;;;;;;0.62;62.05;98402.38;6149853;23;20086;-88
2023/12/01 13:43:13;;;;;;;46.17;17.90;;;;;;;0.27;61.90;98344.09;6063358;23;20008;-85
2023/12/01 13:46:03;;;;;;;46.40;20.60;;;;;;;0.22;62.56;98361.81;6167946;23;20021;-87
2023/12/01 13:48:35;;;;;;;46.85;20.83;;;;;;;0.17;62.74;98377.16;6175689;23;20352;-85
2023/12/01 13:51:09;;;;;;;;;;;;;;;0.52;63.09;98395.13;6171720;23;20005;-82
2023/12/01 13:53:59;;;;;;;45.80;19.05;;;;;;;0.32;62.85;98374.44;6147277;23;19900;-83
2023/12/01 13:56:28;;;;;;;49.70;19.90;;;;;;;0.33;63.10;98370.69;6129412;23;20030;-84
2023/12/01 13:58:57;;;;;;;46.85;19.95;;;;;;;0.43;63.20;98364.47;6138176;23;20014;-85
2023/12/01 14:01:26;;;;;;;48.65;20.55;;;;;;;0.28;63.11;98351.88;6162955;23;20708;-83
2023/12/01 14:03:56;;;;;;;50.55;18.77;;;;;;;0.21;63.61;98336.00;6092224;23;20022;-83
2023/12/01 14:06:39;;;;;;;37.22;17.75;;;;;;;0.33;63.37;98356.44;6140105;23;20021;-82
2023/12/01 14:09:22;;;;;;;43.95;18.17;;;;;;;0.16;63.03;98325.25;6127886;23;20492;-84
2023/12/01 14:12:13;;;;;;;40.50;17.13;;;;;;;0.02;63.47;98315.31;6131586;23;20033;-85
2023/12/01 14:14:43;;;;;;;38.72;15.85;;;;;;;0.31;63.68;98359.41;6153776;23;20025;-86
2023/12/01 14:17:14;;;;;;;39.53;16.67;;;;;;;0.03;63.33;98307.00;6147729;23;20024;-86
2023/12/01 14:19:44;;;;;;;41.35;16.73;;;;;;;0.34;63.02;98337.34;6177815;22;20008;-85
2023/12/01 14:22:33;;;;;;;42.50;17.63;;;;;;;0.47;63.23;98338.69;6240255;22;20021;-87
2023/12/01 14:25:24;;;;;;;38.67;16.92;;;;;;;0.12;63.64;98294.63;6241638;22;20020;-86
2023/12/01 14:29:22;;;;;;;41.40;16.05;;;;;;;0.45;62.64;98346.22;6243211;22;20032;-91
2023/12/01 17:03:04;;;;;;;28.48;11.63;;;;;;;0.10;63.85;98162.47;6238077;23;20107;-86
2023/12/01 17:05:45;;;;;;;33.95;12.93;;;;;;;0.11;64.48;98156.00;6185773;23;20025;-85
2023/12/01 17:08:17;;;;;;;32.72;13.55;;;;;;;0.27;64.17;98159.44;6214674;23;20028;-86
2023/12/01 17:19:56;;;;;;;33.22;12.20;;;;;;;0.42;63.57;98169.31;6179427;23;20121;-87
2023/12/01 17:23:19;;;;;;;31.98;12.50;;;;;;;-0.15;63.66;98090.00;6064074;23;20023;-87
2023/12/01 17:25:59;;;;;;;31.48;12.25;;;;;;;0.33;63.60;98152.97;6063332;23;20019;-86
2023/12/01 17:28:27;;;;;;;33.75;11.40;;;;;;;0.51;63.57;98164.19;6085625;23;20022;-86
2023/12/01 17:30:54;;;;;;;29.52;11.90;;;;;;;0.37;63.38;98153.22;6036218;23;20547;-86
2023/12/01 17:33:21;;;;;;;31.08;13.10;;;;;;;0.20;63.57;98124.81;6081445;23;20134;-87
2023/12/01 17:35:50;;;;;;;26.20;11.98;;;;;;;0.32;63.33;98120.97;6033211;23;20022;-87
2023/12/01 17:38:17;;;;;;;;;;;;;;;0.57;63.31;98158.53;6089512;23;20035;-85
2023/12/01 17:41:31;;;;;;;30.45;11.95;;;;;;;-0.04;63.38;98080.81;6065442;23;19917;-87
2023/12/01 17:44:11;;;;;;;30.67;12.80;;;;;;;0.02;63.60;98095.03;6092323;23;20021;-88
2023/12/01 17:48:08;;;;;;;28.27;11.57;;;;;;;-0.11;63.12;98048.88;6160918;23;20029;-86
2023/12/01 17:50:45;;;;;;;25.75;11.10;;;;;;;0.20;62.95;98103.31;6177347;23;20140;-87
2023/12/01 17:53:25;;;;;;;29.48;12.38;;;;;;;-0.07;63.86;98063.34;6176595;23;20017;-90
2023/12/01 17:56:02;;;;;;;27.25;12.35;;;;;;;0.19;63.28;98101.69;6132387;23;20061;-91
2023/12/01 18:01:35;;;;;;;35.47;13.00;;;;;;;0.23;63.43;98100.06;6187417;22;20029;-91
2023/12/01 18:04:07;;;;;;;31.85;13.07;;;;;;;0.07;63.86;98086.97;6131160;23;20012;-91
2023/12/01 18:06:54;;;;;;;;;;;;;;;0.19;64.21;98125.06;6131447;23;20017;-91
2023/12/01 18:09:29;;;;;;;31.67;13.52;;;;;;;0.02;63.87;98078.91;6153345;23;19923;-91
2023/12/01 18:15:29;;;;;;;29.15;13.27;;;;;;;0.28;63.99;98112.66;6214184;22;20255;-93
2023/12/01 18:21:21;;;;;;;30.60;13.68;;;;;;;0.18;63.69;98093.91;6240910;22;20054;-91
2023/12/01 19:13:29;;;;;;;26.55;11.93;;;;;;;0.11;64.31;98096.88;6217741;22;20029;-93
2023/12/01 19:17:01;;;;;;;31.20;12.60;;;;;;;-0.25;64.30;98034.44;6239793;22;20071;-92
2023/12/01 19:31:34;;;;;;;23.80;11.20;;;;;;;-0.05;64.40;98065.78;6237414;22;20088;-91
